sensor_id;sensor_type;location;lat;lon;timestamp;temperature;humidity
15288;DHT22;7745;48.708;9.026;2023-04-16T00:01:40;7.70;99.90
15288;DHT22;7745;48.708;9.026;2023-04-16T00:04:07;7.20;99.90
15288;DHT22;7745;48.708;9.026;2023-04-16T00:06:36;7.20;99.90
15288;DHT22;7745;48.708;9.026;2023-04-16T00:09:03;7.20;99.90
15288;DHT22;7745;48.708;9.026;2023-04-16T00:11:30;7.30;99.90
15288;DHT22;7745;48.708;9.026;2023-04-16T00:13:58;7.50;99.90
15288;DHT22;7745;48.708;9.026;2023-04-16T00:16:26;7.50;99.90
15288;DHT22;7745;48.708;9.026;2023-04-16T00:18:52;7.30;99.90
15288;DHT22;7745;48.708;9.026;2023-04-16T00:21:24;7.50;99.90
15288;DHT22;7745;48.708;9.026;2023-04-16T00:23:55;7.30;99.90
15288;DHT22;7745;48.708;9.026;2023-04-16T00:26:24;7.20;99.90
15288;DHT22;7745;48.708;9.026;2023-04-16T00:28:51;7.30;99.90
15288;DHT22;7745;48.708;9.026;2023-04-16T00:31:27;7.40;99.90
15288;DHT22;7745;48.708;9.026;2023-04-16T00:33:59;7.30;99.90
15288;DHT22;7745;48.708;9.026;2023-04-16T00:36:27;7.20;99.90
15288;DHT22;7745;48.708;9.026;2023-04-16T00:38:57;7.20;99.90
15288;DHT22;7745;48.708;9.026;2023-04-16T00:41:24;7.40;99.90
15288;DHT22;7745;48.708;9.026;2023-04-16T00:43:52;7.40;99.90
15288;DHT22;7745;48.708;9.026;2023-04-16T00:46:21;7.40;99.90
15288;DHT22;7745;48.708;9.026;2023-04-16T00:48:52;7.20;99.90
15288;DHT22;7745;48.708;9.026;2023-04-16T00:51:20;7.50;99.90
15288;DHT22;7745;48.708;9.026;2023-04-16T00:53:52;7.20;99.90
15288;DHT22;7745;48.708;9.026;2023-04-16T00:56:19;7.20;99.90
15288;DHT22;7745;48.708;9.026;2023-04-16T00:58:48;7.20;99.90
15288;DHT22;7745;48.708;9.026;2023-04-16T01:01:18;7.20;99.90
15288;DHT22;7745;48.708;9.026;2023-04-16T01:03:48;7.20;99.90
15288;DHT22;7745;48.708;9.026;2023-04-16T01:06:17;7.40;99.90
15288;DHT22;7745;48.708;9.026;2023-04-16T01:08:46;7.30;99.90
15288;DHT22;7745;48.708;9.026;2023-04-16T01:11:14;7.20;99.90
15288;DHT22;7745;48.708;9.026;2023-04-16T01:13:42;7.60;99.90
15288;DHT22;7745;48.708;9.026;2023-04-16T01:16:10;7.20;99.90
15288;DHT22;7745;48.708;9.026;2023-04-16T01:18:37;7.20;99.90
15288;DHT22;7745;48.708;9.026;2023-04-16T01:21:07;7.30;99.90
15288;DHT22;7745;48.708;9.026;2023-04-16T01:23:34;7.50;99.90
15288;DHT22;7745;48.708;9.026;2023-04-16T01:26:01;7.40;99.90
15288;DHT22;7745;48.708;9.026;2023-04-16T01:28:28;7.50;99.90
15288;DHT22;7745;48.708;9.026;2023-04-16T01:30:55;7.20;99.90
15288;DHT22;7745;48.708;9.026;2023-04-16T01:33:22;7.20;99.90
15288;DHT22;7745;48.708;9.026;2023-04-16T01:35:48;7.30;99.90
15288;DHT22;7745;48.708;9.026;2023-04-16T01:38:19;7.40;99.90
15288;DHT22;7745;48.708;9.026;2023-04-16T01:40:46;7.20;99.90
15288;DHT22;7745;48.708;9.026;2023-04-16T01:43:13;7.20;99.90
15288;DHT22;7745;48.708;9.026;2023-04-16T01:45:43;7.30;99.90
15288;DHT22;7745;48.708;9.026;2023-04-16T01:48:15;7.40;99.90
15288;DHT22;7745;48.708;9.026;2023-04-16T01:50:44;7.10;99.90
15288;DHT22;7745;48.708;9.026;2023-04-16T01:53:13;7.50;99.90
15288;DHT22;7745;48.708;9.026;2023-04-16T01:55:46;7.30;99.90
15288;DHT22;7745;48.708;9.026;2023-04-16T01:58:15;7.30;99.90
15288;DHT22;7745;48.708;9.026;2023-04-16T02:00:45;7.20;99.90
15288;DHT22;7745;48.708;9.026;2023-04-16T02:03:15;7.50;99.90
15288;DHT22;7745;48.708;9.026;2023-04-16T02:05:47;7.20;99.90
15288;DHT22;7745;48.708;9.026;2023-04-16T02:08:16;7.20;99.90
15288;DHT22;7745;48.708;9.026;2023-04-16T02:10:46;7.30;99.90
15288;DHT22;7745;48.708;9.026;2023-04-16T02:13:16;7.30;99.90
15288;DHT22;7745;48.708;9.026;2023-04-16T02:15:49;7.30;99.90
15288;DHT22;7745;48.708;9.026;2023-04-16T02:18:19;7.10;99.90
15288;DHT22;7745;48.708;9.026;2023-04-16T02:20:52;7.60;99.90
15288;DHT22;7745;48.708;9.026;2023-04-16T02:23:22;7.20;99.90
15288;DHT22;7745;48.708;9.026;2023-04-16T02:25:56;7.10;99.90
15288;DHT22;7745;48.708;9.026;2023-04-16T02:28:32;7.10;99.90
15288;DHT22;7745;48.708;9.026;2023-04-16T02:31:01;7.10;99.90
15288;DHT22;7745;48.708;9.026;2023-04-16T02:33:32;7.20;99.90
15288;DHT22;7745;48.708;9.026;2023-04-16T02:36:00;7.10;99.90
15288;DHT22;7745;48.708;9.026;2023-04-16T02:38:33;7.20;99.90
15288;DHT22;7745;48.708;9.026;2023-04-16T02:41:07;7.10;99.90
15288;DHT22;7745;48.708;9.026;2023-04-16T02:43:40;7.10;99.90
15288;DHT22;7745;48.708;9.026;2023-04-16T02:46:12;7.10;99.90
15288;DHT22;7745;48.708;9.026;2023-04-16T02:48:43;7.50;99.90
15288;DHT22;7745;48.708;9.026;2023-04-16T02:51:12;7.00;99.90
15288;DHT22;7745;48.708;9.026;2023-04-16T02:53:44;7.10;99.90
15288;DHT22;7745;48.708;9.026;2023-04-16T02:56:19;7.20;99.90
15288;DHT22;7745;48.708;9.026;2023-04-16T02:58:51;7.10;99.90
15288;DHT22;7745;48.708;9.026;2023-04-16T03:01:20;7.40;99.90
15288;DHT22;7745;48.708;9.026;2023-04-16T03:03:52;7.30;99.90
15288;DHT22;7745;48.708;9.026;2023-04-16T03:06:31;7.20;99.90
15288;DHT22;7745;48.708;9.026;2023-04-16T03:09:05;7.10;99.90
15288;DHT22;7745;48.708;9.026;2023-04-16T03:11:54;7.10;99.90
15288;DHT22;7745;48.708;9.026;2023-04-16T03:14:29;7.10;99.90
15288;DHT22;7745;48.708;9.026;2023-04-16T03:16:58;7.10;99.90
15288;DHT22;7745;48.708;9.026;2023-04-16T03:19:28;7.50;99.90
15288;DHT22;7745;48.708;9.026;2023-04-16T03:21:58;7.30;99.90
15288;DHT22;7745;48.708;9.026;2023-04-16T03:24:32;7.10;99.90
15288;DHT22;7745;48.708;9.026;2023-04-16T03:27:05;6.90;99.90
15288;DHT22;7745;48.708;9.026;2023-04-16T03:29:38;7.20;99.90
15288;DHT22;7745;48.708;9.026;2023-04-16T03:32:08;7.30;99.90
15288;DHT22;7745;48.708;9.026;2023-04-16T03:34:42;7.30;99.90
15288;DHT22;7745;48.708;9.026;2023-04-16T03:37:09;7.20;99.90
15288;DHT22;7745;48.708;9.026;2023-04-16T03:39:40;7.30;99.90
15288;DHT22;7745;48.708;9.026;2023-04-16T03:42:10;7.10;99.90
15288;DHT22;7745;48.708;9.026;2023-04-16T03:44:40;7.10;99.90
15288;DHT22;7745;48.708;9.026;2023-04-16T03:47:10;7.20;99.90
15288;DHT22;7745;48.708;9.026;2023-04-16T03:49:40;7.10;99.90
15288;DHT22;7745;48.708;9.026;2023-04-16T03:52:14;7.10;99.90
15288;DHT22;7745;48.708;9.026;2023-04-16T03:54:42;7.20;99.90
15288;DHT22;7745;48.708;9.026;2023-04-16T03:57:15;7.10;99.90
15288;DHT22;7745;48.708;9.026;2023-04-16T03:59:42;7.00;99.90
15288;DHT22;7745;48.708;9.026;2023-04-16T04:02:14;7.30;99.90
15288;DHT22;7745;48.708;9.026;2023-04-16T04:04:43;7.30;99.90
15288;DHT22;7745;48.708;9.026;2023-04-16T04:07:17;7.00;99.90
15288;DHT22;7745;48.708;9.026;2023-04-16T04:09:49;7.10;99.90
15288;DHT22;7745;48.708;9.026;2023-04-16T04:12:21;7.00;99.90
15288;DHT22;7745;48.708;9.026;2023-04-16T04:14:49;7.10;99.90
15288;DHT22;7745;48.708;9.026;2023-04-16T04:17:19;7.10;99.90
15288;DHT22;7745;48.708;9.026;2023-04-16T04:19:46;7.00;99.90
15288;DHT22;7745;48.708;9.026;2023-04-16T04:22:17;7.00;99.90
15288;DHT22;7745;48.708;9.026;2023-04-16T04:24:46;7.00;99.90
15288;DHT22;7745;48.708;9.026;2023-04-16T04:27:20;7.20;99.90
15288;DHT22;7745;48.708;9.026;2023-04-16T04:29:50;7.00;99.90
15288;DHT22;7745;48.708;9.026;2023-04-16T04:32:18;7.10;99.90
15288;DHT22;7745;48.708;9.026;2023-04-16T04:34:48;7.00;99.90
15288;DHT22;7745;48.708;9.026;2023-04-16T04:37:17;7.20;99.90
15288;DHT22;7745;48.708;9.026;2023-04-16T04:39:50;7.00;99.90
15288;DHT22;7745;48.708;9.026;2023-04-16T04:42:26;7.00;99.90
15288;DHT22;7745;48.708;9.026;2023-04-16T04:45:00;7.00;99.90
15288;DHT22;7745;48.708;9.026;2023-04-16T04:47:27;7.00;99.90
15288;DHT22;7745;48.708;9.026;2023-04-16T04:49:59;7.00;99.90
15288;DHT22;7745;48.708;9.026;2023-04-16T04:52:25;7.00;99.90
15288;DHT22;7745;48.708;9.026;2023-04-16T04:54:52;7.00;99.90
15288;DHT22;7745;48.708;9.026;2023-04-16T04:57:19;7.00;99.90
15288;DHT22;7745;48.708;9.026;2023-04-16T04:59:48;7.00;99.90
15288;DHT22;7745;48.708;9.026;2023-04-16T05:02:20;7.20;99.90
15288;DHT22;7745;48.708;9.026;2023-04-16T05:04:47;7.00;99.90
15288;DHT22;7745;48.708;9.026;2023-04-16T05:07:14;7.00;99.90
15288;DHT22;7745;48.708;9.026;2023-04-16T05:09:41;7.00;99.90
15288;DHT22;7745;48.708;9.026;2023-04-16T05:12:08;7.00;99.90
15288;DHT22;7745;48.708;9.026;2023-04-16T05:14:35;7.00;99.90
15288;DHT22;7745;48.708;9.026;2023-04-16T05:17:03;7.00;99.90
15288;DHT22;7745;48.708;9.026;2023-04-16T05:19:30;7.00;99.90
15288;DHT22;7745;48.708;9.026;2023-04-16T05:21:56;7.00;99.90
15288;DHT22;7745;48.708;9.026;2023-04-16T05:24:23;6.90;99.90
15288;DHT22;7745;48.708;9.026;2023-04-16T05:26:50;6.90;99.90
15288;DHT22;7745;48.708;9.026;2023-04-16T05:29:17;7.00;99.90
15288;DHT22;7745;48.708;9.026;2023-04-16T05:31:43;7.00;99.90
15288;DHT22;7745;48.708;9.026;2023-04-16T05:34:12;7.00;99.90
15288;DHT22;7745;48.708;9.026;2023-04-16T05:36:38;6.90;99.90
15288;DHT22;7745;48.708;9.026;2023-04-16T05:39:05;6.90;99.90
15288;DHT22;7745;48.708;9.026;2023-04-16T05:41:32;6.90;99.90
15288;DHT22;7745;48.708;9.026;2023-04-16T05:43:59;7.00;99.90
15288;DHT22;7745;48.708;9.026;2023-04-16T05:46:26;7.00;99.90
15288;DHT22;7745;48.708;9.026;2023-04-16T05:48:53;6.90;99.90
15288;DHT22;7745;48.708;9.026;2023-04-16T05:51:21;7.00;99.90
15288;DHT22;7745;48.708;9.026;2023-04-16T05:53:50;6.90;99.90
15288;DHT22;7745;48.708;9.026;2023-04-16T05:56:17;6.90;99.90
15288;DHT22;7745;48.708;9.026;2023-04-16T05:58:44;7.00;99.90
15288;DHT22;7745;48.708;9.026;2023-04-16T06:01:10;7.00;99.90
15288;DHT22;7745;48.708;9.026;2023-04-16T06:03:37;6.90;99.90
15288;DHT22;7745;48.708;9.026;2023-04-16T06:06:04;7.00;99.90
15288;DHT22;7745;48.708;9.026;2023-04-16T06:08:34;6.90;99.90
15288;DHT22;7745;48.708;9.026;2023-04-16T06:11:01;6.90;99.90
15288;DHT22;7745;48.708;9.026;2023-04-16T06:13:28;6.90;99.90
15288;DHT22;7745;48.708;9.026;2023-04-16T06:15:56;7.10;99.90
15288;DHT22;7745;48.708;9.026;2023-04-16T06:18:23;6.90;99.90
15288;DHT22;7745;48.708;9.026;2023-04-16T06:20:50;6.90;99.90
15288;DHT22;7745;48.708;9.026;2023-04-16T06:23:18;6.90;99.90
15288;DHT22;7745;48.708;9.026;2023-04-16T06:25:47;7.00;99.90
15288;DHT22;7745;48.708;9.026;2023-04-16T06:28:13;7.10;99.90
15288;DHT22;7745;48.708;9.026;2023-04-16T06:30:40;6.90;99.90
15288;DHT22;7745;48.708;9.026;2023-04-16T06:33:07;6.90;99.90
15288;DHT22;7745;48.708;9.026;2023-04-16T06:35:34;6.90;99.90
15288;DHT22;7745;48.708;9.026;2023-04-16T06:38:01;7.30;99.90
15288;DHT22;7745;48.708;9.026;2023-04-16T06:40:28;6.90;99.90
15288;DHT22;7745;48.708;9.026;2023-04-16T06:42:56;6.90;99.90
15288;DHT22;7745;48.708;9.026;2023-04-16T06:45:23;7.00;99.90
15288;DHT22;7745;48.708;9.026;2023-04-16T06:47:50;7.20;99.90
15288;DHT22;7745;48.708;9.026;2023-04-16T06:50:16;7.00;99.90
15288;DHT22;7745;48.708;9.026;2023-04-16T06:52:43;7.00;99.90
15288;DHT22;7745;48.708;9.026;2023-04-16T06:55:10;7.00;99.90
15288;DHT22;7745;48.708;9.026;2023-04-16T06:57:37;7.00;99.90
15288;DHT22;7745;48.708;9.026;2023-04-16T07:00:07;7.00;99.90
15288;DHT22;7745;48.708;9.026;2023-04-16T07:02:34;7.00;99.90
15288;DHT22;7745;48.708;9.026;2023-04-16T07:05:01;7.00;99.90
15288;DHT22;7745;48.708;9.026;2023-04-16T07:07:35;7.00;99.90
15288;DHT22;7745;48.708;9.026;2023-04-16T07:10:25;7.20;99.90
15288;DHT22;7745;48.708;9.026;2023-04-16T07:13:02;7.10;99.90
15288;DHT22;7745;48.708;9.026;2023-04-16T07:15:32;7.20;99.90
15288;DHT22;7745;48.708;9.026;2023-04-16T07:18:01;7.20;99.90
15288;DHT22;7745;48.708;9.026;2023-04-16T07:21:13;7.20;99.90
15288;DHT22;7745;48.708;9.026;2023-04-16T07:29:44;7.20;99.90
15288;DHT22;7745;48.708;9.026;2023-04-16T07:40:49;7.20;99.90
15288;DHT22;7745;48.708;9.026;2023-04-16T07:43:21;7.20;99.90
15288;DHT22;7745;48.708;9.026;2023-04-16T07:45:52;7.20;99.90
15288;DHT22;7745;48.708;9.026;2023-04-16T07:48:20;7.40;99.90
15288;DHT22;7745;48.708;9.026;2023-04-16T07:50:47;7.30;99.90
15288;DHT22;7745;48.708;9.026;2023-04-16T07:53:14;7.30;99.90
15288;DHT22;7745;48.708;9.026;2023-04-16T07:55:41;7.50;99.90
15288;DHT22;7745;48.708;9.026;2023-04-16T07:58:09;7.30;99.90
15288;DHT22;7745;48.708;9.026;2023-04-16T08:00:36;7.30;99.90
15288;DHT22;7745;48.708;9.026;2023-04-16T08:03:04;7.20;99.90
15288;DHT22;7745;48.708;9.026;2023-04-16T08:05:30;7.30;99.90
15288;DHT22;7745;48.708;9.026;2023-04-16T08:07:57;7.20;99.90
15288;DHT22;7745;48.708;9.026;2023-04-16T08:10:24;7.30;99.90
15288;DHT22;7745;48.708;9.026;2023-04-16T08:12:52;7.20;99.90
15288;DHT22;7745;48.708;9.026;2023-04-16T08:15:20;7.30;99.90
15288;DHT22;7745;48.708;9.026;2023-04-16T08:17:47;7.30;99.90
15288;DHT22;7745;48.708;9.026;2023-04-16T08:20:13;7.20;99.90
15288;DHT22;7745;48.708;9.026;2023-04-16T08:22:40;7.20;99.90
15288;DHT22;7745;48.708;9.026;2023-04-16T08:25:09;7.30;99.90
15288;DHT22;7745;48.708;9.026;2023-04-16T08:27:37;7.30;99.90
15288;DHT22;7745;48.708;9.026;2023-04-16T08:30:07;7.30;99.90
15288;DHT22;7745;48.708;9.026;2023-04-16T08:32:45;7.40;99.90
15288;DHT22;7745;48.708;9.026;2023-04-16T08:35:12;7.30;99.90
15288;DHT22;7745;48.708;9.026;2023-04-16T08:37:39;7.40;99.90
15288;DHT22;7745;48.708;9.026;2023-04-16T08:40:07;7.40;99.90
15288;DHT22;7745;48.708;9.026;2023-04-16T08:42:42;7.40;99.90
15288;DHT22;7745;48.708;9.026;2023-04-16T08:45:13;7.40;99.90
15288;DHT22;7745;48.708;9.026;2023-04-16T08:47:45;7.40;99.90
15288;DHT22;7745;48.708;9.026;2023-04-16T08:50:14;7.40;99.90
15288;DHT22;7745;48.708;9.026;2023-04-16T08:52:45;7.60;99.90
15288;DHT22;7745;48.708;9.026;2023-04-16T08:55:15;7.40;99.90
15288;DHT22;7745;48.708;9.026;2023-04-16T08:57:47;7.40;99.90
15288;DHT22;7745;48.708;9.026;2023-04-16T09:00:15;7.40;99.90
15288;DHT22;7745;48.708;9.026;2023-04-16T09:02:44;7.40;99.90
15288;DHT22;7745;48.708;9.026;2023-04-16T09:05:15;7.50;99.90
15288;DHT22;7745;48.708;9.026;2023-04-16T09:07:45;7.50;99.90
15288;DHT22;7745;48.708;9.026;2023-04-16T09:10:14;7.70;99.90
15288;DHT22;7745;48.708;9.026;2023-04-16T09:12:41;7.80;99.90
15288;DHT22;7745;48.708;9.026;2023-04-16T09:15:09;7.60;99.90
15288;DHT22;7745;48.708;9.026;2023-04-16T09:17:37;7.70;99.90
15288;DHT22;7745;48.708;9.026;2023-04-16T09:20:08;8.00;99.90
15288;DHT22;7745;48.708;9.026;2023-04-16T09:22:36;7.70;99.90
15288;DHT22;7745;48.708;9.026;2023-04-16T09:25:03;7.80;99.90
15288;DHT22;7745;48.708;9.026;2023-04-16T09:27:30;7.70;99.90
15288;DHT22;7745;48.708;9.026;2023-04-16T09:29:59;7.90;99.90
15288;DHT22;7745;48.708;9.026;2023-04-16T09:32:27;7.80;99.90
15288;DHT22;7745;48.708;9.026;2023-04-16T09:34:55;7.80;99.90
15288;DHT22;7745;48.708;9.026;2023-04-16T09:37:25;7.90;99.90
15288;DHT22;7745;48.708;9.026;2023-04-16T09:39:55;7.90;99.90
15288;DHT22;7745;48.708;9.026;2023-04-16T09:42:24;7.90;99.90
15288;DHT22;7745;48.708;9.026;2023-04-16T09:44:52;7.90;99.90
15288;DHT22;7745;48.708;9.026;2023-04-16T09:47:22;8.00;99.90
15288;DHT22;7745;48.708;9.026;2023-04-16T09:49:49;8.00;99.90
15288;DHT22;7745;48.708;9.026;2023-04-16T09:52:17;7.90;99.90
15288;DHT22;7745;48.708;9.026;2023-04-16T09:54:47;7.90;99.90
15288;DHT22;7745;48.708;9.026;2023-04-16T09:57:20;7.90;99.90
15288;DHT22;7745;48.708;9.026;2023-04-16T09:59:47;7.90;99.90
15288;DHT22;7745;48.708;9.026;2023-04-16T10:02:15;8.00;99.90
15288;DHT22;7745;48.708;9.026;2023-04-16T10:04:46;7.90;99.90
15288;DHT22;7745;48.708;9.026;2023-04-16T10:07:14;8.10;99.90
15288;DHT22;7745;48.708;9.026;2023-04-16T10:09:41;8.10;99.90
15288;DHT22;7745;48.708;9.026;2023-04-16T10:15:20;8.00;99.90
15288;DHT22;7745;48.708;9.026;2023-04-16T10:17:47;8.00;99.90
15288;DHT22;7745;48.708;9.026;2023-04-16T10:20:15;8.00;99.90
15288;DHT22;7745;48.708;9.026;2023-04-16T10:22:43;8.00;99.90
15288;DHT22;7745;48.708;9.026;2023-04-16T10:25:10;8.00;99.90
15288;DHT22;7745;48.708;9.026;2023-04-16T10:27:39;8.00;99.90
15288;DHT22;7745;48.708;9.026;2023-04-16T10:30:09;7.90;99.90
15288;DHT22;7745;48.708;9.026;2023-04-16T10:32:41;7.90;99.90
15288;DHT22;7745;48.708;9.026;2023-04-16T10:35:08;7.90;99.90
15288;DHT22;7745;48.708;9.026;2023-04-16T10:37:36;7.90;99.90
15288;DHT22;7745;48.708;9.026;2023-04-16T10:40:21;7.90;99.90
15288;DHT22;7745;48.708;9.026;2023-04-16T10:42:55;7.90;99.90
15288;DHT22;7745;48.708;9.026;2023-04-16T10:45:28;7.90;99.90
15288;DHT22;7745;48.708;9.026;2023-04-16T10:47:56;7.90;99.90
15288;DHT22;7745;48.708;9.026;2023-04-16T10:50:23;7.90;99.90
15288;DHT22;7745;48.708;9.026;2023-04-16T10:53:16;8.00;99.90
15288;DHT22;7745;48.708;9.026;2023-04-16T10:56:09;7.90;99.90
15288;DHT22;7745;48.708;9.026;2023-04-16T10:58:36;8.00;99.90
15288;DHT22;7745;48.708;9.026;2023-04-16T11:01:06;8.00;99.90
15288;DHT22;7745;48.708;9.026;2023-04-16T11:03:40;8.00;99.90
15288;DHT22;7745;48.708;9.026;2023-04-16T11:06:13;8.20;99.90
15288;DHT22;7745;48.708;9.026;2023-04-16T11:08:43;8.10;99.90
15288;DHT22;7745;48.708;9.026;2023-04-16T11:11:11;8.20;99.90
15288;DHT22;7745;48.708;9.026;2023-04-16T11:13:41;8.20;99.90
15288;DHT22;7745;48.708;9.026;2023-04-16T11:16:09;8.30;99.90
15288;DHT22;7745;48.708;9.026;2023-04-16T11:18:38;8.30;99.90
15288;DHT22;7745;48.708;9.026;2023-04-16T11:21:07;8.30;99.90
15288;DHT22;7745;48.708;9.026;2023-04-16T11:23:49;8.30;99.90
15288;DHT22;7745;48.708;9.026;2023-04-16T11:26:23;8.50;99.90
15288;DHT22;7745;48.708;9.026;2023-04-16T11:28:57;8.40;99.90
15288;DHT22;7745;48.708;9.026;2023-04-16T11:31:38;8.40;99.90
15288;DHT22;7745;48.708;9.026;2023-04-16T11:34:13;8.40;99.90
15288;DHT22;7745;48.708;9.026;2023-04-16T11:36:44;8.40;99.90
15288;DHT22;7745;48.708;9.026;2023-04-16T11:39:20;8.40;99.90
15288;DHT22;7745;48.708;9.026;2023-04-16T11:42:17;8.50;99.90
15288;DHT22;7745;48.708;9.026;2023-04-16T11:48:01;8.60;99.90
15288;DHT22;7745;48.708;9.026;2023-04-16T11:50:44;8.50;99.90
15288;DHT22;7745;48.708;9.026;2023-04-16T11:55:17;8.50;99.90
15288;DHT22;7745;48.708;9.026;2023-04-16T11:57:15;8.60;99.90
15288;DHT22;7745;48.708;9.026;2023-04-16T12:00:11;8.80;99.90
15288;DHT22;7745;48.708;9.026;2023-04-16T12:02:52;8.90;99.90
15288;DHT22;7745;48.708;9.026;2023-04-16T12:05:44;8.90;99.90
15288;DHT22;7745;48.708;9.026;2023-04-16T12:08:36;8.90;99.90
15288;DHT22;7745;48.708;9.026;2023-04-16T12:11:38;9.00;99.90
15288;DHT22;7745;48.708;9.026;2023-04-16T12:14:08;8.90;99.90
15288;DHT22;7745;48.708;9.026;2023-04-16T12:16:38;8.80;99.90
15288;DHT22;7745;48.708;9.026;2023-04-16T12:19:20;8.70;99.90
15288;DHT22;7745;48.708;9.026;2023-04-16T12:21:53;8.70;99.90
15288;DHT22;7745;48.708;9.026;2023-04-16T12:24:26;8.70;99.90
15288;DHT22;7745;48.708;9.026;2023-04-16T12:26:58;8.70;99.90
15288;DHT22;7745;48.708;9.026;2023-04-16T12:29:29;8.70;99.90
15288;DHT22;7745;48.708;9.026;2023-04-16T12:31:56;8.70;99.90
15288;DHT22;7745;48.708;9.026;2023-04-16T12:34:23;8.70;99.90
15288;DHT22;7745;48.708;9.026;2023-04-16T12:37:06;9.30;99.90
15288;DHT22;7745;48.708;9.026;2023-04-16T12:39:33;8.90;99.90
15288;DHT22;7745;48.708;9.026;2023-04-16T12:42:00;8.90;99.90
15288;DHT22;7745;48.708;9.026;2023-04-16T12:44:28;9.00;99.90
15288;DHT22;7745;48.708;9.026;2023-04-16T12:46:55;8.80;99.90
15288;DHT22;7745;48.708;9.026;2023-04-16T12:49:21;8.80;99.90
15288;DHT22;7745;48.708;9.026;2023-04-16T12:51:49;8.90;99.90
15288;DHT22;7745;48.708;9.026;2023-04-16T12:54:17;8.80;99.90
15288;DHT22;7745;48.708;9.026;2023-04-16T12:56:44;8.80;99.90
15288;DHT22;7745;48.708;9.026;2023-04-16T12:59:10;8.80;99.90
15288;DHT22;7745;48.708;9.026;2023-04-16T13:01:37;8.80;99.90
15288;DHT22;7745;48.708;9.026;2023-04-16T13:04:05;9.10;99.90
15288;DHT22;7745;48.708;9.026;2023-04-16T13:06:32;8.80;99.90
15288;DHT22;7745;48.708;9.026;2023-04-16T13:09:01;8.80;99.90
15288;DHT22;7745;48.708;9.026;2023-04-16T13:11:30;8.70;99.90
15288;DHT22;7745;48.708;9.026;2023-04-16T13:13:57;8.70;99.90
15288;DHT22;7745;48.708;9.026;2023-04-16T13:16:24;8.70;99.90
15288;DHT22;7745;48.708;9.026;2023-04-16T13:18:51;8.70;99.90
15288;DHT22;7745;48.708;9.026;2023-04-16T13:21:18;9.00;99.90
15288;DHT22;7745;48.708;9.026;2023-04-16T13:23:45;8.80;99.90
15288;DHT22;7745;48.708;9.026;2023-04-16T13:26:11;8.90;99.90
15288;DHT22;7745;48.708;9.026;2023-04-16T13:28:41;8.80;99.90
15288;DHT22;7745;48.708;9.026;2023-04-16T13:31:08;8.80;99.90
15288;DHT22;7745;48.708;9.026;2023-04-16T13:33:35;8.90;99.90
15288;DHT22;7745;48.708;9.026;2023-04-16T13:36:05;8.80;99.90
15288;DHT22;7745;48.708;9.026;2023-04-16T13:38:32;8.80;99.90
15288;DHT22;7745;48.708;9.026;2023-04-16T13:40:59;8.80;99.90
15288;DHT22;7745;48.708;9.026;2023-04-16T13:43:26;8.80;99.90
15288;DHT22;7745;48.708;9.026;2023-04-16T13:45:54;8.80;99.90
15288;DHT22;7745;48.708;9.026;2023-04-16T13:48:21;8.80;99.90
15288;DHT22;7745;48.708;9.026;2023-04-16T13:50:51;8.80;99.90
15288;DHT22;7745;48.708;9.026;2023-04-16T13:53:27;8.90;99.90
15288;DHT22;7745;48.708;9.026;2023-04-16T13:56:02;8.90;99.90
15288;DHT22;7745;48.708;9.026;2023-04-16T13:58:29;8.80;99.90
15288;DHT22;7745;48.708;9.026;2023-04-16T14:00:57;8.80;99.90
15288;DHT22;7745;48.708;9.026;2023-04-16T14:03:24;8.70;99.90
15288;DHT22;7745;48.708;9.026;2023-04-16T14:05:53;8.60;99.90
15288;DHT22;7745;48.708;9.026;2023-04-16T14:08:19;8.60;99.90
15288;DHT22;7745;48.708;9.026;2023-04-16T14:10:48;8.70;99.90
15288;DHT22;7745;48.708;9.026;2023-04-16T14:13:14;8.80;99.90
15288;DHT22;7745;48.708;9.026;2023-04-16T14:15:41;8.60;99.90
15288;DHT22;7745;48.708;9.026;2023-04-16T14:18:09;8.70;99.90
15288;DHT22;7745;48.708;9.026;2023-04-16T14:21:07;8.70;99.90
15288;DHT22;7745;48.708;9.026;2023-04-16T14:23:53;8.60;99.90
15288;DHT22;7745;48.708;9.026;2023-04-16T14:26:34;8.50;99.90
15288;DHT22;7745;48.708;9.026;2023-04-16T14:29:01;8.50;99.90
15288;DHT22;7745;48.708;9.026;2023-04-16T14:31:32;8.60;99.90
15288;DHT22;7745;48.708;9.026;2023-04-16T14:34:05;8.50;99.90
15288;DHT22;7745;48.708;9.026;2023-04-16T14:36:35;8.50;99.90
15288;DHT22;7745;48.708;9.026;2023-04-16T14:39:02;8.50;99.90
15288;DHT22;7745;48.708;9.026;2023-04-16T14:41:30;8.40;99.90
15288;DHT22;7745;48.708;9.026;2023-04-16T14:43:58;8.40;99.90
15288;DHT22;7745;48.708;9.026;2023-04-16T14:46:25;8.30;99.90
15288;DHT22;7745;48.708;9.026;2023-04-16T14:48:52;8.30;99.90
15288;DHT22;7745;48.708;9.026;2023-04-16T14:51:20;8.80;99.90
15288;DHT22;7745;48.708;9.026;2023-04-16T14:53:47;8.40;99.90
15288;DHT22;7745;48.708;9.026;2023-04-16T14:56:17;8.60;99.90
15288;DHT22;7745;48.708;9.026;2023-04-16T14:58:48;8.40;99.90
15288;DHT22;7745;48.708;9.026;2023-04-16T15:01:27;8.40;99.90
15288;DHT22;7745;48.708;9.026;2023-04-16T15:04:06;8.30;99.90
15288;DHT22;7745;48.708;9.026;2023-04-16T15:06:35;8.70;99.90
15288;DHT22;7745;48.708;9.026;2023-04-16T15:09:08;8.40;99.90
15288;DHT22;7745;48.708;9.026;2023-04-16T15:11:36;8.30;99.90
15288;DHT22;7745;48.708;9.026;2023-04-16T15:14:09;8.40;99.90
15288;DHT22;7745;48.708;9.026;2023-04-16T15:16:37;8.50;99.90
15288;DHT22;7745;48.708;9.026;2023-04-16T15:19:06;8.40;99.90
15288;DHT22;7745;48.708;9.026;2023-04-16T15:21:41;8.50;99.90
15288;DHT22;7745;48.708;9.026;2023-04-16T15:24:35;8.50;99.90
15288;DHT22;7745;48.708;9.026;2023-04-16T15:27:26;8.30;99.90
15288;DHT22;7745;48.708;9.026;2023-04-16T15:30:29;8.30;99.90
15288;DHT22;7745;48.708;9.026;2023-04-16T15:33:00;8.30;99.90
15288;DHT22;7745;48.708;9.026;2023-04-16T15:35:34;8.80;99.90
15288;DHT22;7745;48.708;9.026;2023-04-16T15:38:03;8.70;99.90
15288;DHT22;7745;48.708;9.026;2023-04-16T15:40:32;8.30;99.90
15288;DHT22;7745;48.708;9.026;2023-04-16T15:42:59;8.30;99.90
15288;DHT22;7745;48.708;9.026;2023-04-16T15:45:26;8.30;99.90
15288;DHT22;7745;48.708;9.026;2023-04-16T15:47:56;8.30;99.90
15288;DHT22;7745;48.708;9.026;2023-04-16T15:50:24;8.30;99.90
15288;DHT22;7745;48.708;9.026;2023-04-16T15:52:52;8.40;99.90
15288;DHT22;7745;48.708;9.026;2023-04-16T15:55:20;8.30;99.90
15288;DHT22;7745;48.708;9.026;2023-04-16T15:57:47;8.30;99.90
15288;DHT22;7745;48.708;9.026;2023-04-16T16:00:14;8.30;99.90
15288;DHT22;7745;48.708;9.026;2023-04-16T16:02:42;8.30;99.90
15288;DHT22;7745;48.708;9.026;2023-04-16T16:05:10;8.30;99.90
15288;DHT22;7745;48.708;9.026;2023-04-16T16:07:38;8.40;99.90
15288;DHT22;7745;48.708;9.026;2023-04-16T16:10:11;8.40;99.90
15288;DHT22;7745;48.708;9.026;2023-04-16T16:12:40;8.40;99.90
15288;DHT22;7745;48.708;9.026;2023-04-16T16:15:08;8.30;99.90
15288;DHT22;7745;48.708;9.026;2023-04-16T16:17:37;8.30;99.90
15288;DHT22;7745;48.708;9.026;2023-04-16T16:20:17;8.40;99.90
15288;DHT22;7745;48.708;9.026;2023-04-16T16:22:46;8.40;99.90
15288;DHT22;7745;48.708;9.026;2023-04-16T16:25:17;8.40;99.90
15288;DHT22;7745;48.708;9.026;2023-04-16T16:27:45;8.40;99.90
15288;DHT22;7745;48.708;9.026;2023-04-16T16:30:18;8.40;99.90
15288;DHT22;7745;48.708;9.026;2023-04-16T16:32:46;8.40;99.90
15288;DHT22;7745;48.708;9.026;2023-04-16T16:35:15;8.40;99.90
15288;DHT22;7745;48.708;9.026;2023-04-16T16:37:42;8.40;99.90
15288;DHT22;7745;48.708;9.026;2023-04-16T16:40:09;8.40;99.90
15288;DHT22;7745;48.708;9.026;2023-04-16T16:42:37;8.40;99.90
15288;DHT22;7745;48.708;9.026;2023-04-16T16:45:10;8.60;99.90